Time;durP1;ratioP1;P1;durP2;ratioP2;P2;SDS_P1;SDS_P2;PMS_P1;PMS_P2;Temp;Humidity;BMP_temperature;BMP_pressure;BME280_temperature;BME280_humidity;BME280_pressure;Samples;Min_cycle;Max_cycle;Signal;HPM_P1;HPM_P2
2021/06/21 00:01:42;;;;;;;8.30;1.90;;;18.30;99.90;;;;;;5052681;28;20884;-52
2021/06/21 00:04:08;;;;;;;7.70;2.30;;;18.40;99.90;;;;;;5051371;28;20451;-50
2021/06/21 00:06:33;;;;;;;9.68;2.70;;;18.50;99.90;;;;;;5052246;28;20486;-51
2021/06/21 00:08:59;;;;;;;7.93;2.50;;;18.50;99.90;;;;;;5052943;28;20477;-50
2021/06/21 00:11:25;;;;;;;8.67;2.17;;;18.60;99.90;;;;;;5052109;28;20396;-50
2021/06/21 00:13:50;;;;;;;9.70;2.30;;;18.60;99.90;;;;;;5052853;28;20366;-50
2021/06/21 00:16:16;;;;;;;13.93;2.75;;;18.60;99.90;;;;;;5051860;28;20521;-54
2021/06/21 00:18:42;;;;;;;10.50;2.27;;;18.70;99.90;;;;;;5052598;28;20370;-50
2021/06/21 00:21:07;;;;;;;4.53;1.80;;;18.70;99.90;;;;;;5052761;28;20393;-50
2021/06/21 00:23:34;;;;;;;10.57;2.78;;;18.70;99.90;;;;;;5051619;28;20478;-50
2021/06/21 00:26:00;;;;;;;10.48;2.00;;;18.70;99.90;;;;;;5052517;28;20890;-50
2021/06/21 00:28:25;;;;;;;9.70;2.20;;;18.70;99.90;;;;;;5051472;28;20474;-50
2021/06/21 00:30:51;;;;;;;10.52;2.38;;;18.80;99.90;;;;;;5052493;28;20480;-50
2021/06/21 00:33:17;;;;;;;10.57;2.63;;;18.90;99.90;;;;;;5052007;28;20732;-53
2021/06/21 00:35:43;;;;;;;6.60;2.10;;;18.90;99.90;;;;;;5052287;28;20528;-50
2021/06/21 00:38:08;;;;;;;11.15;2.35;;;19.10;99.90;;;;;;5051995;28;20500;-50
2021/06/21 00:40:36;;;;;;;8.37;2.47;;;19.10;99.90;;;;;;5051443;28;21005;-50
2021/06/21 00:43:03;;;;;;;11.48;2.00;;;19.10;99.90;;;;;;5052209;28;20392;-49
2021/06/21 00:45:29;;;;;;;7.50;1.95;;;19.00;99.90;;;;;;5051048;28;20743;-50
2021/06/21 00:47:55;;;;;;;9.83;2.13;;;18.90;99.90;;;;;;5052111;28;20389;-49
2021/06/21 00:50:22;;;;;;;8.27;2.70;;;18.80;99.90;;;;;;5051362;28;20385;-49
2021/06/21 00:52:52;;;;;;;11.30;2.90;;;18.80;99.90;;;;;;5051883;28;20411;-50
2021/06/21 00:55:17;;;;;;;10.90;2.30;;;18.80;99.90;;;;;;5050625;28;20480;-53
2021/06/21 00:57:43;;;;;;;7.68;2.05;;;18.70;99.90;;;;;;5051155;28;20777;-51
2021/06/21 01:00:14;;;;;;;7.82;2.35;;;18.60;99.90;;;;;;5051672;28;20373;-50
2021/06/21 01:02:40;;;;;;;10.43;2.65;;;18.50;99.90;;;;;;5051116;28;20388;-50
2021/06/21 01:05:16;;;;;;;9.15;2.10;;;18.50;99.90;;;;;;5051259;28;20410;-50
2021/06/21 01:07:41;;;;;;;7.73;2.30;;;18.40;99.90;;;;;;5050223;28;20808;-50
2021/06/21 01:10:09;;;;;;;10.35;2.20;;;18.40;99.90;;;;;;5051699;28;20542;-50
2021/06/21 01:12:47;;;;;;;11.93;2.40;;;18.30;99.90;;;;;;5050842;28;20695;-50
2021/06/21 01:15:21;;;;;;;7.50;3.08;;;18.40;99.90;;;;;;5051208;28;20378;-49
2021/06/21 01:17:52;;;;;;;9.63;2.70;;;18.50;99.90;;;;;;5051420;28;20460;-53
2021/06/21 01:20:42;;;;;;;11.60;2.30;;;18.40;99.90;;;;;;5051006;28;20382;-53
2021/06/21 01:23:35;;;;;;;8.35;2.35;;;18.50;99.90;;;;;;5051510;28;20862;-50
2021/06/21 01:26:23;;;;;;;8.13;2.45;;;18.50;99.90;;;;;;5051623;28;20447;-50
2021/06/21 01:28:59;;;;;;;9.55;3.13;;;18.50;99.90;;;;;;5050191;28;20432;-50
2021/06/21 01:31:48;;;;;;;9.30;2.20;;;18.50;99.90;;;;;;5050922;28;20386;-50
2021/06/21 01:34:17;;;;;;;8.30;2.10;;;17.20;99.90;;;;;;5051139;28;20394;-49
2021/06/21 01:36:46;;;;;;;10.37;2.60;;;18.40;99.90;;;;;;5050854;28;20405;-50
2021/06/21 01:39:12;;;;;;;8.00;2.10;;;18.40;99.90;;;;;;5050792;28;20912;-50
2021/06/21 01:41:41;;;;;;;7.90;2.20;;;18.40;99.90;;;;;;5050208;28;20379;-49
2021/06/21 01:44:09;;;;;;;9.32;2.45;;;18.50;99.90;;;;;;5050873;28;20420;-50
2021/06/21 01:46:38;;;;;;;9.85;2.50;;;18.50;99.90;;;;;;5049946;28;20385;-50
2021/06/21 01:49:12;;;;;;;7.90;1.85;;;18.50;99.90;;;;;;5050551;28;20871;-50
2021/06/21 01:51:40;;;;;;;12.77;2.35;;;18.50;99.90;;;;;;5050291;28;20522;-50
2021/06/21 01:54:08;;;;;;;8.53;2.00;;;18.60;99.90;;;;;;5050731;28;20938;-50
2021/06/21 01:56:39;;;;;;;8.88;2.00;;;18.50;99.90;;;;;;5049912;28;20485;-50
2021/06/21 01:59:07;;;;;;;8.45;1.80;;;18.40;99.90;;;;;;5050903;28;20378;-50
2021/06/21 02:01:34;;;;;;;10.82;2.55;;;18.50;99.90;;;;;;5048285;28;20382;-50
2021/06/21 02:04:04;;;;;;;11.48;1.90;;;18.50;99.90;;;;;;5050870;28;20405;-50
2021/06/21 02:06:33;;;;;;;9.05;2.20;;;18.50;99.90;;;;;;5045406;28;20787;-50
2021/06/21 02:09:00;;;;;;;7.22;2.10;;;18.50;99.90;;;;;;5029563;28;20760;-50
2021/06/21 02:11:27;;;;;;;8.48;2.60;;;18.40;99.90;;;;;;5029597;28;20379;-50
2021/06/21 02:13:55;;;;;;;9.17;2.60;;;18.40;99.90;;;;;;5030165;28;20861;-50
2021/06/21 02:16:23;;;;;;;9.95;2.70;;;18.40;99.90;;;;;;5029591;28;20457;-53
2021/06/21 02:18:50;;;;;;;10.25;2.50;;;18.40;99.90;;;;;;5030752;28;20379;-51
2021/06/21 02:21:18;;;;;;;9.80;2.97;;;18.30;99.90;;;;;;5030109;28;20474;-50
2021/06/21 02:23:44;;;;;;;9.68;2.90;;;18.30;99.90;;;;;;5030118;28;20394;-49
2021/06/21 02:26:12;;;;;;;10.17;2.80;;;18.20;99.90;;;;;;5030746;28;20749;-51
2021/06/21 02:28:39;;;;;;;10.20;2.63;;;18.30;99.90;;;;;;5029528;28;20383;-50
2021/06/21 02:31:07;;;;;;;12.50;3.28;;;18.30;99.90;;;;;;5030539;28;20901;-50
2021/06/21 02:33:33;;;;;;;7.93;2.15;;;18.30;99.90;;;;;;5029202;28;20534;-50
2021/06/21 02:35:59;;;;;;;12.20;2.88;;;18.30;99.90;;;;;;5029791;28;20414;-50
2021/06/21 02:38:25;;;;;;;7.13;2.80;;;18.40;99.90;;;;;;5029154;28;20441;-50
2021/06/21 02:40:50;;;;;;;9.30;2.47;;;18.50;99.90;;;;;;5030097;28;20387;-51
2021/06/21 02:43:16;;;;;;;11.80;2.50;;;18.50;99.90;;;;;;5030019;28;20386;-51
2021/06/21 02:45:42;;;;;;;11.20;2.90;;;18.50;99.90;;;;;;5029200;28;20533;-50
2021/06/21 02:48:10;;;;;;;9.77;2.80;;;18.50;99.90;;;;;;5030299;28;20786;-50
2021/06/21 02:50:42;;;;;;;12.00;2.60;;;18.50;99.90;;;;;;5028987;28;20452;-50
2021/06/21 02:53:40;;;;;;;9.32;2.55;;;18.40;99.90;;;;;;5029882;28;20448;-50
2021/06/21 02:56:24;;;;;;;11.10;3.28;;;18.50;99.90;;;;;;5029537;28;20414;-51
2021/06/21 02:58:55;;;;;;;10.75;2.50;;;18.40;99.90;;;;;;5029915;28;20387;-50
2021/06/21 03:01:24;;;;;;;10.25;2.70;;;18.50;99.90;;;;;;5029064;28;20383;-54
2021/06/21 03:03:53;;;;;;;12.13;2.45;;;18.60;99.90;;;;;;5029035;28;20435;-50
2021/06/21 03:06:20;;;;;;;11.27;2.55;;;18.60;99.90;;;;;;5029180;28;20383;-54
2021/06/21 03:08:48;;;;;;;12.38;2.97;;;18.60;99.90;;;;;;5030020;28;20415;-50
2021/06/21 03:11:17;;;;;;;14.63;2.97;;;18.70;99.90;;;;;;5029861;28;20386;-51
2021/06/21 03:13:45;;;;;;;8.40;2.58;;;18.70;99.90;;;;;;5028989;28;20371;-50
2021/06/21 03:16:13;;;;;;;13.03;2.60;;;18.70;99.90;;;;;;5029218;28;20407;-50
2021/06/21 03:18:40;;;;;;;8.30;2.40;;;18.60;99.90;;;;;;5029014;28;20370;-52
2021/06/21 03:21:06;;;;;;;12.27;2.40;;;18.60;99.90;;;;;;5034797;28;20379;-49
2021/06/21 03:23:32;;;;;;;7.68;2.60;;;18.50;99.90;;;;;;5035103;28;20936;-51
2021/06/21 03:26:01;;;;;;;7.40;2.30;;;18.60;99.90;;;;;;5036177;28;20383;-53
2021/06/21 03:28:28;;;;;;;11.60;2.20;;;18.60;99.90;;;;;;5050612;28;20379;-50
2021/06/21 03:30:58;;;;;;;10.23;3.08;;;18.50;99.90;;;;;;5042688;28;20409;-50
2021/06/21 03:33:25;;;;;;;9.52;2.50;;;18.60;99.90;;;;;;5055297;28;20385;-51
2021/06/21 03:35:51;;;;;;;9.50;2.50;;;18.70;99.90;;;;;;5055980;28;20413;-51
2021/06/21 03:38:24;;;;;;;8.35;2.10;;;18.70;99.90;;;;;;5055729;28;20381;-51
2021/06/21 03:40:52;;;;;;;8.00;2.25;;;18.70;99.90;;;;;;5055767;28;20874;-51
2021/06/21 03:43:20;;;;;;;7.38;2.50;;;18.60;99.90;;;;;;5055925;28;20424;-54
2021/06/21 03:45:47;;;;;;;12.23;2.10;;;18.60;99.90;;;;;;5055723;28;20396;-51
2021/06/21 03:48:13;;;;;;;10.02;3.00;;;18.60;99.90;;;;;;5055857;28;20374;-51
2021/06/21 03:50:39;;;;;;;8.60;2.35;;;18.60;99.90;;;;;;5054922;28;20448;-51
2021/06/21 03:53:06;;;;;;;11.20;2.40;;;18.50;99.90;;;;;;5055900;28;20385;-51
2021/06/21 03:55:33;;;;;;;8.98;2.20;;;18.50;99.90;;;;;;5054751;28;20417;-51
2021/06/21 03:57:59;;;;;;;8.48;2.10;;;18.50;99.90;;;;;;5055449;28;20400;-52
2021/06/21 04:00:27;;;;;;;10.23;2.00;;;18.60;99.90;;;;;;5054377;28;20835;-51
2021/06/21 04:02:54;;;;;;;6.85;1.88;;;18.60;99.90;;;;;;5051827;28;20882;-51
2021/06/21 04:05:21;;;;;;;7.43;2.15;;;18.60;99.90;;;;;;5053417;28;20419;-54
2021/06/21 04:07:46;;;;;;;9.45;2.60;;;18.50;99.90;;;;;;5054418;28;20396;-51
2021/06/21 04:10:16;;;;;;;9.00;2.53;;;17.20;99.90;;;;;;5054981;28;20778;-51
2021/06/21 04:12:42;;;;;;;10.05;2.47;;;18.70;99.90;;;;;;5054677;28;20457;-52
2021/06/21 04:15:10;;;;;;;11.30;2.40;;;18.80;99.90;;;;;;5055537;28;20558;-51
2021/06/21 04:17:37;;;;;;;7.18;2.15;;;18.80;99.90;;;;;;5054611;28;20448;-51
2021/06/21 04:20:07;;;;;;;10.85;2.47;;;18.80;99.90;;;;;;5055472;28;20415;-52
2021/06/21 04:22:33;;;;;;;8.80;2.60;;;18.80;99.90;;;;;;5053746;28;20458;-51
2021/06/21 04:24:59;;;;;;;11.32;2.80;;;18.80;99.90;;;;;;5055327;28;20847;-51
2021/06/21 04:27:24;;;;;;;11.00;2.80;;;18.80;99.90;;;;;;5054291;28;20920;-52
2021/06/21 04:29:50;;;;;;;9.73;2.40;;;18.90;99.90;;;;;;5055420;28;20376;-51
2021/06/21 04:32:16;;;;;;;8.57;2.10;;;18.90;99.90;;;;;;5052376;28;20397;-51
2021/06/21 04:34:42;;;;;;;7.80;1.90;;;19.00;99.90;;;;;;5051780;28;20969;-52
2021/06/21 04:37:07;;;;;;;8.73;2.00;;;19.00;99.90;;;;;;5051808;28;20409;-52
2021/06/21 04:39:33;;;;;;;7.43;1.63;;;19.00;99.90;;;;;;5049931;28;20405;-51
2021/06/21 04:41:59;;;;;;;8.85;2.00;;;19.00;99.90;;;;;;5052122;28;20716;-51
2021/06/21 04:44:25;;;;;;;10.50;2.03;;;19.00;99.90;;;;;;5051876;28;20388;-52
2021/06/21 04:46:50;;;;;;;14.60;2.58;;;18.90;99.90;;;;;;5052114;28;20488;-51
2021/06/21 04:49:17;;;;;;;7.30;2.20;;;19.00;99.90;;;;;;5052186;28;20378;-51
2021/06/21 04:51:47;;;;;;;9.18;2.17;;;19.00;99.90;;;;;;5051098;28;20468;-51
2021/06/21 04:54:14;;;;;;;10.25;2.83;;;18.90;99.90;;;;;;5052272;28;20381;-52
2021/06/21 04:56:39;;;;;;;7.20;2.00;;;18.90;99.90;;;;;;5051140;28;20499;-50
2021/06/21 04:59:06;;;;;;;9.80;2.60;;;18.90;99.90;;;;;;5051239;28;20471;-51
2021/06/21 05:01:31;;;;;;;10.00;2.30;;;19.00;99.90;;;;;;5050356;28;20759;-51
2021/06/21 05:04:01;;;;;;;10.93;2.75;;;19.00;99.90;;;;;;5051365;28;20924;-51
2021/06/21 05:06:28;;;;;;;7.05;1.88;;;19.50;99.90;;;;;;5051283;28;20390;-49
2021/06/21 05:08:54;;;;;;;9.43;2.50;;;20.60;99.90;;;;;;5050443;28;20400;-50
2021/06/21 05:11:20;;;;;;;10.48;2.05;;;22.10;99.90;;;;;;5051578;28;20512;-54
2021/06/21 05:13:46;;;;;;;7.33;1.97;;;22.40;99.90;;;;;;5051024;28;20813;-50
2021/06/21 05:16:11;;;;;;;8.37;2.10;;;22.50;99.90;;;;;;5050208;28;20416;-49
2021/06/21 05:18:38;;;;;;;9.60;1.70;;;22.60;99.90;;;;;;5050742;28;20432;-50
2021/06/21 05:21:04;;;;;;;10.10;2.47;;;23.30;99.90;;;;;;5050439;28;20878;-50
2021/06/21 05:23:30;;;;;;;12.65;2.13;;;23.70;99.90;;;;;;5051086;28;20393;-51
2021/06/21 05:25:56;;;;;;;8.33;2.03;;;24.30;99.90;;;;;;5051437;28;20378;-51
2021/06/21 05:28:22;;;;;;;10.45;2.20;;;25.30;99.90;;;;;;5050813;28;20420;-53
2021/06/21 05:30:48;;;;;;;11.33;2.57;;;25.80;99.90;;;;;;5051209;28;20413;-49
2021/06/21 05:33:14;;;;;;;9.30;2.25;;;26.60;99.90;;;;;;5051055;28;20385;-49
2021/06/21 05:35:43;;;;;;;10.33;2.30;;;26.80;99.90;;;;;;5050510;28;20684;-49
2021/06/21 05:38:08;;;;;;;10.50;2.20;;;26.40;99.90;;;;;;5051183;28;20391;-50
2021/06/21 05:40:34;;;;;;;7.87;2.13;;;26.60;99.90;;;;;;5050320;28;20381;-49
2021/06/21 05:43:01;;;;;;;10.93;2.10;;;26.50;99.90;;;;;;5050742;28;20488;-49
2021/06/21 05:45:27;;;;;;;7.30;1.30;;;26.40;99.90;;;;;;5050072;28;20416;-49
2021/06/21 05:47:52;;;;;;;8.25;2.00;;;26.70;99.90;;;;;;5050640;28;20385;-49
2021/06/21 05:50:18;;;;;;;9.80;2.00;;;26.40;99.90;;;;;;5048964;28;20374;-49
2021/06/21 05:52:47;;;;;;;9.02;1.90;;;25.90;99.90;;;;;;5044947;28;20894;-48
2021/06/21 05:55:13;;;;;;;10.07;1.52;;;26.10;99.90;;;;;;5050306;28;20748;-49
2021/06/21 05:57:40;;;;;;;9.32;1.80;;;26.20;99.90;;;;;;5049834;28;20456;-48
2021/06/21 06:00:06;;;;;;;10.33;2.40;;;26.40;99.90;;;;;;5050266;28;20426;-48
2021/06/21 06:02:32;;;;;;;9.35;2.17;;;26.70;99.90;;;;;;5049857;28;20381;-49
2021/06/21 06:04:57;;;;;;;8.20;2.10;;;27.30;99.90;;;;;;5049908;28;20670;-49
2021/06/21 06:07:24;;;;;;;9.73;2.50;;;27.00;99.90;;;;;;5049469;28;20421;-52
2021/06/21 06:09:50;;;;;;;9.13;2.17;;;27.30;99.90;;;;;;5050318;28;20397;-49
2021/06/21 06:12:17;;;;;;;8.60;2.40;;;27.60;99.90;;;;;;5054230;28;20446;-48
2021/06/21 06:14:42;;;;;;;8.10;2.20;;;27.50;99.90;;;;;;5058796;28;20389;-49
2021/06/21 06:17:08;;;;;;;6.57;1.40;;;27.70;99.90;;;;;;5057471;28;20507;-48
2021/06/21 06:19:34;;;;;;;10.48;1.98;;;27.80;99.90;;;;;;5056422;28;20377;-49
2021/06/21 06:22:00;;;;;;;9.70;2.30;;;28.20;99.90;;;;;;5049696;28;20413;-50
2021/06/21 06:24:26;;;;;;;9.32;1.70;;;28.30;99.90;;;;;;5049360;28;20392;-50
2021/06/21 06:26:52;;;;;;;8.07;1.75;;;28.00;99.90;;;;;;5050142;28;20476;-49
2021/06/21 06:29:19;;;;;;;6.28;1.63;;;27.90;99.90;;;;;;5050210;28;20388;-49
2021/06/21 06:31:47;;;;;;;7.03;1.70;;;27.80;99.90;;;;;;5049159;28;20378;-49
2021/06/21 06:34:14;;;;;;;6.75;1.38;;;27.80;99.90;;;;;;5049708;28;20496;-49
2021/06/21 06:36:40;;;;;;;9.52;1.40;;;28.00;99.90;;;;;;5048927;28;20431;-48
2021/06/21 06:39:07;;;;;;;8.47;1.90;;;27.50;99.90;;;;;;5049525;28;20899;-49
2021/06/21 06:41:34;;;;;;;7.67;1.63;;;27.70;99.90;;;;;;5049336;28;20529;-49
2021/06/21 06:44:01;;;;;;;9.70;1.58;;;27.60;99.90;;;;;;5049417;28;20464;-49
2021/06/21 06:46:27;;;;;;;7.78;1.65;;;27.50;99.90;;;;;;5049001;28;20396;-49
2021/06/21 06:48:53;;;;;;;8.23;2.22;;;27.70;99.90;;;;;;5049788;28;20389;-49
2021/06/21 06:51:19;;;;;;;8.27;1.55;;;28.00;99.90;;;;;;5049967;28;20385;-49
2021/06/21 06:58:56;;;;;;;10.52;1.77;;;28.30;99.90;;;;;;5049308;28;20388;-49
2021/06/21 07:01:23;;;;;;;6.25;1.65;;;28.60;99.90;;;;;;5049378;28;20385;-52
2021/06/21 07:03:50;;;;;;;7.68;3.00;;;29.20;99.90;;;;;;5048676;28;20398;-50
2021/06/21 07:06:17;;;;;;;8.15;2.50;;;29.70;99.90;;;;;;5049794;28;20392;-50
2021/06/21 07:08:44;;;;;;;6.28;2.80;;;30.30;98.10;;;;;;5047805;28;20389;-50
2021/06/21 07:11:11;;;;;;;6.90;2.20;;;29.70;99.40;;;;;;5049230;28;20377;-50
2021/06/21 07:13:36;;;;;;;6.85;2.10;;;29.40;99.90;;;;;;5047801;28;20459;-50
2021/06/21 07:16:02;;;;;;;7.50;2.20;;;28.70;99.90;;;;;;5047228;28;20943;-51
2021/06/21 07:18:28;;;;;;;6.50;2.50;;;29.90;99.20;;;;;;5048804;28;20467;-57
2021/06/21 07:20:53;;;;;;;9.77;2.93;;;29.60;99.60;;;;;;5049679;28;20389;-51
2021/06/21 07:23:19;;;;;;;7.30;2.63;;;29.60;99.40;;;;;;5048722;28;20381;-51
2021/06/21 07:25:45;;;;;;;8.70;2.80;;;30.60;97.80;;;;;;5048521;28;20962;-50
2021/06/21 07:28:12;;;;;;;6.50;3.35;;;30.80;95.70;;;;;;5049673;28;20868;-50
2021/06/21 07:30:37;;;;;;;6.72;2.92;;;30.50;95.20;;;;;;5048171;28;20397;-50
2021/06/21 07:33:03;;;;;;;9.57;3.20;;;30.20;95.80;;;;;;5049418;28;20381;-50
2021/06/21 07:35:29;;;;;;;6.63;2.60;;;30.60;95.30;;;;;;5048635;28;20488;-50
2021/06/21 07:37:55;;;;;;;6.97;2.70;;;30.20;95.60;;;;;;5049258;28;20378;-50
2021/06/21 07:40:21;;;;;;;7.05;2.80;;;30.40;96.00;;;;;;5048637;28;20389;-50
2021/06/21 07:42:47;;;;;;;7.20;1.60;;;31.00;94.20;;;;;;5048376;28;20392;-50
2021/06/21 07:45:13;;;;;;;7.27;1.60;;;30.10;94.80;;;;;;5049175;28;20392;-50
2021/06/21 07:47:38;;;;;;;7.85;1.80;;;28.80;97.00;;;;;;5048285;28;20397;-50
2021/06/21 07:50:05;;;;;;;6.07;1.83;;;29.60;96.90;;;;;;5049153;28;20389;-50
2021/06/21 07:52:31;;;;;;;5.65;1.23;;;30.70;93.90;;;;;;5048396;28;20412;-51
2021/06/21 07:54:59;;;;;;;8.50;2.53;;;31.00;93.90;;;;;;5048975;28;20392;-50
2021/06/21 07:57:28;;;;;;;10.48;5.35;;;31.60;92.80;;;;;;5048870;28;20444;-54
2021/06/21 07:59:55;;;;;;;8.20;3.53;;;32.50;92.10;;;;;;5049022;28;20871;-50
2021/06/21 08:02:21;;;;;;;6.87;1.70;;;33.10;86.50;;;;;;5048786;28;20382;-50
2021/06/21 08:04:50;;;;;;;7.33;2.00;;;31.90;87.70;;;;;;5047755;28;20419;-51
2021/06/21 08:07:17;;;;;;;6.75;1.55;;;30.70;90.90;;;;;;5050487;28;20570;-50
2021/06/21 08:09:43;;;;;;;7.17;1.70;;;29.80;91.40;;;;;;5051866;28;20496;-52
2021/06/21 08:12:09;;;;;;;6.82;1.50;;;29.90;92.20;;;;;;5052718;28;20460;-50
2021/06/21 08:14:35;;;;;;;7.20;1.60;;;29.90;92.60;;;;;;5051597;28;20396;-51
2021/06/21 08:17:00;;;;;;;6.70;1.55;;;29.80;92.00;;;;;;5052593;28;20751;-51
2021/06/21 08:19:26;;;;;;;7.97;1.60;;;30.60;89.40;;;;;;5050918;28;20407;-52
2021/06/21 08:21:52;;;;;;;6.35;1.70;;;31.80;88.00;;;;;;5052158;28;20448;-50
2021/06/21 08:24:17;;;;;;;6.95;1.42;;;31.30;89.80;;;;;;5051966;28;20766;-51
2021/06/21 08:26:43;;;;;;;7.80;1.63;;;30.90;88.40;;;;;;5059579;28;20396;-50
2021/06/21 08:29:09;;;;;;;7.03;1.60;;;30.60;90.00;;;;;;5063670;28;20411;-51
2021/06/21 08:31:34;;;;;;;6.43;1.83;;;30.40;90.10;;;;;;5055483;28;20384;-50
2021/06/21 08:34:00;;;;;;;6.30;1.87;;;30.40;90.60;;;;;;5052336;28;20389;-50
2021/06/21 08:36:26;;;;;;;7.50;1.52;;;30.90;90.50;;;;;;5051347;28;20413;-53
2021/06/21 08:38:52;;;;;;;7.13;2.23;;;30.80;90.00;;;;;;5052362;28;20443;-50
2021/06/21 08:41:20;;;;;;;6.60;1.58;;;30.80;87.90;;;;;;5051833;28;20739;-50
2021/06/21 08:43:47;;;;;;;6.32;1.40;;;30.40;88.00;;;;;;5051304;28;20377;-50
2021/06/21 08:46:15;;;;;;;5.88;1.63;;;30.70;90.60;;;;;;5050610;28;20728;-50
2021/06/21 08:48:43;;;;;;;8.40;2.10;;;31.10;88.00;;;;;;5051100;28;20387;-51
2021/06/21 08:51:12;;;;;;;7.47;1.80;;;30.70;86.70;;;;;;5052107;28;20381;-51
2021/06/21 08:53:37;;;;;;;8.40;1.50;;;31.60;88.00;;;;;;5050922;28;20373;-51
2021/06/21 08:56:03;;;;;;;5.97;1.60;;;31.70;85.90;;;;;;5051455;28;20421;-49
2021/06/21 08:58:29;;;;;;;7.73;1.63;;;32.60;81.20;;;;;;5051073;28;20438;-52
2021/06/21 09:00:54;;;;;;;6.40;1.30;;;33.60;82.30;;;;;;5050498;28;20384;-49
2021/06/21 09:03:20;;;;;;;5.17;1.70;;;32.50;80.70;;;;;;5051872;28;20378;-50
2021/06/21 09:05:46;;;;;;;6.32;1.60;;;31.90;81.70;;;;;;5058513;28;20668;-50
2021/06/21 09:08:12;;;;;;;8.95;1.60;;;31.90;81.10;;;;;;5058437;28;20533;-50
2021/06/21 09:10:40;;;;;;;6.75;1.75;;;31.50;80.90;;;;;;5056525;28;20421;-50
2021/06/21 09:13:14;;;;;;;5.75;1.50;;;30.90;84.10;;;;;;5060170;28;20386;-52
2021/06/21 09:15:51;;;;;;;7.30;2.10;;;31.70;86.00;;;;;;5042675;28;20394;-52
2021/06/21 09:18:33;;;;;;;6.60;1.60;;;32.30;83.60;;;;;;5061091;28;20388;-50
2021/06/21 09:21:26;;;;;;;6.75;1.70;;;32.40;84.10;;;;;;5064535;28;20411;-50
2021/06/21 09:23:54;;;;;;;7.18;1.40;;;32.90;81.20;;;;;;5045962;28;20871;-50
2021/06/21 09:26:29;;;;;;;7.03;1.67;;;33.80;79.20;;;;;;5061750;28;20382;-50
2021/06/21 09:28:57;;;;;;;7.28;1.73;;;34.60;75.40;;;;;;5062482;28;20384;-50
2021/06/21 09:31:26;;;;;;;6.50;1.40;;;34.00;71.70;;;;;;5071183;28;20517;-49
2021/06/21 09:33:52;;;;;;;9.03;1.70;;;33.50;77.20;;;;;;5061725;28;20416;-50
2021/06/21 09:36:35;;;;;;;8.53;2.13;;;33.60;74.40;;;;;;5055958;28;20404;-52
2021/06/21 09:39:25;;;;;;;8.50;1.88;;;33.90;72.90;;;;;;5071323;28;20380;-50
2021/06/21 09:42:24;;;;;;;6.60;1.80;;;34.30;73.10;;;;;;5030295;28;20395;-51
2021/06/21 09:44:55;;;;;;;8.35;2.25;;;34.90;69.10;;;;;;5030286;28;20891;-50
2021/06/21 09:47:31;;;;;;;6.93;1.70;;;36.30;65.80;;;;;;5030735;28;20414;-50
2021/06/21 09:50:05;;;;;;;6.25;1.65;;;36.10;62.50;;;;;;5030965;28;20884;-50
2021/06/21 09:53:02;;;;;;;6.53;1.38;;;34.30;67.90;;;;;;5030215;28;20419;-50
2021/06/21 09:55:32;;;;;;;9.50;3.50;;;32.60;73.20;;;;;;5025424;28;20832;-53
2021/06/21 09:58:29;;;;;;;8.50;3.50;;;31.80;73.80;;;;;;5030699;28;20391;-52
2021/06/21 10:01:11;;;;;;;8.55;3.20;;;31.10;80.40;;;;;;5029447;28;20454;-49
2021/06/21 10:03:41;;;;;;;9.68;3.63;;;29.90;83.10;;;;;;5060761;28;20804;-50
2021/06/21 10:06:09;;;;;;;8.18;2.92;;;29.70;84.80;;;;;;5055705;28;20446;-50
2021/06/21 10:08:46;;;;;;;6.82;3.67;;;29.50;86.00;;;;;;5069479;28;20919;-50
2021/06/21 10:11:37;;;;;;;11.30;3.10;;;29.70;86.00;;;;;;5067233;28;20374;-51
2021/06/21 10:14:05;;;;;;;7.30;2.40;;;31.00;84.10;;;;;;5050440;28;20382;-51
2021/06/21 10:16:31;;;;;;;5.50;2.80;;;31.80;80.60;;;;;;5054661;28;20432;-52
2021/06/21 10:18:57;;;;;;;5.97;2.50;;;33.40;76.20;;;;;;5053600;28;20442;-50
2021/06/21 10:21:25;;;;;;;7.83;2.50;;;34.00;72.10;;;;;;5050324;28;20393;-50
2021/06/21 10:23:51;;;;;;;7.38;2.40;;;33.00;72.10;;;;;;5066604;28;20883;-50
2021/06/21 10:26:17;;;;;;;6.15;2.78;;;31.90;75.90;;;;;;5070268;28;20469;-50
2021/06/21 10:28:44;;;;;;;7.60;2.78;;;31.00;79.70;;;;;;5069034;28;20856;-50
2021/06/21 10:31:10;;;;;;;6.97;2.90;;;30.20;79.90;;;;;;5050500;28;20393;-52
2021/06/21 10:33:36;;;;;;;7.68;3.20;;;30.20;82.70;;;;;;5058836;28;20411;-50
2021/06/21 10:36:05;;;;;;;6.95;2.50;;;30.70;81.00;;;;;;5049288;28;20470;-51
2021/06/21 10:38:31;;;;;;;7.35;2.88;;;31.00;80.00;;;;;;5048604;28;20673;-53
2021/06/21 10:41:02;;;;;;;8.93;3.85;;;30.80;78.80;;;;;;5064732;28;20460;-50
2021/06/21 10:43:53;;;;;;;7.43;3.40;;;30.70;81.30;;;;;;5049170;28;20377;-53
2021/06/21 10:46:31;;;;;;;6.22;3.20;;;30.10;82.30;;;;;;5049655;28;20461;-50
2021/06/21 10:49:08;;;;;;;6.95;2.90;;;29.90;84.40;;;;;;5049778;28;20456;-50
2021/06/21 10:51:39;;;;;;;6.90;3.30;;;30.00;85.90;;;;;;5048833;28;20468;-51
2021/06/21 10:54:07;;;;;;;6.10;3.10;;;29.90;79.60;;;;;;5049659;28;20381;-50
2021/06/21 10:56:48;;;;;;;7.73;3.00;;;29.80;81.30;;;;;;5048788;28;20413;-50
2021/06/21 10:59:16;;;;;;;9.73;3.70;;;30.00;83.20;;;;;;5049803;28;20388;-49
2021/06/21 11:01:45;;;;;;;8.00;3.10;;;30.60;82.10;;;;;;5048505;28;20385;-51
2021/06/21 11:04:11;;;;;;;7.63;3.30;;;30.60;81.70;;;;;;5049446;28;20428;-50
2021/06/21 11:06:38;;;;;;;6.57;3.47;;;30.80;83.20;;;;;;5048696;28;20393;-50
2021/06/21 11:09:05;;;;;;;6.65;2.25;;;30.90;82.20;;;;;;5048257;28;20393;-49
2021/06/21 11:11:38;;;;;;;7.38;3.20;;;30.90;82.10;;;;;;5048728;28;20372;-53
2021/06/21 11:14:10;;;;;;;5.80;2.92;;;30.80;83.90;;;;;;5048852;28;20393;-50
2021/06/21 11:16:39;;;;;;;9.20;3.00;;;31.30;81.60;;;;;;5048742;28;20500;-51
2021/06/21 11:19:22;;;;;;;6.67;2.80;;;31.30;79.50;;;;;;5049710;28;20382;-50
2021/06/21 11:21:50;;;;;;;8.80;3.90;;;31.00;80.80;;;;;;5048204;28;20456;-49
2021/06/21 11:24:46;;;;;;;7.03;3.80;;;30.30;82.10;;;;;;5048854;28;20394;-50
2021/06/21 11:27:14;;;;;;;6.05;2.80;;;29.70;82.90;;;;;;5048716;28;20382;-53
2021/06/21 11:29:49;;;;;;;6.55;2.88;;;29.70;87.30;;;;;;5048990;28;20450;-50
2021/06/21 11:32:16;;;;;;;8.13;3.10;;;29.80;84.90;;;;;;5053909;28;20399;-50
2021/06/21 11:34:55;;;;;;;6.40;3.50;;;29.50;85.30;;;;;;5055061;28;20444;-50
2021/06/21 11:37:48;;;;;;;6.63;3.50;;;29.20;83.10;;;;;;5056026;28;20943;-50
2021/06/21 11:40:21;;;;;;;8.90;4.00;;;28.90;85.40;;;;;;5054667;28;20392;-49
2021/06/21 11:42:56;;;;;;;8.27;3.70;;;29.10;84.60;;;;;;5053553;28;20443;-50
2021/06/21 11:45:57;;;;;;;6.43;3.17;;;29.50;83.80;;;;;;5052610;28;20389;-51
2021/06/21 11:48:24;;;;;;;9.97;4.00;;;29.40;84.50;;;;;;5052910;28;20496;-49
2021/06/21 11:50:50;;;;;;;7.40;3.20;;;29.70;86.20;;;;;;5052417;28;20466;-50
2021/06/21 11:53:16;;;;;;;6.10;2.60;;;29.80;82.80;;;;;;5052885;28;20374;-50
2021/06/21 11:55:42;;;;;;;6.60;3.70;;;30.10;83.90;;;;;;5050985;28;20388;-50
2021/06/21 11:58:09;;;;;;;6.22;3.05;;;30.50;80.80;;;;;;5052658;28;20468;-50
2021/06/21 12:00:35;;;;;;;7.22;3.40;;;30.70;83.00;;;;;;5051885;28;20728;-50
2021/06/21 12:03:06;;;;;;;11.80;3.70;;;30.70;79.50;;;;;;5052646;28;20393;-50
2021/06/21 12:05:32;;;;;;;7.18;3.60;;;30.50;80.40;;;;;;5052464;28;20436;-50
2021/06/21 12:07:58;;;;;;;9.18;3.40;;;30.70;80.00;;;;;;5052935;28;20832;-50
2021/06/21 12:10:24;;;;;;;6.37;3.53;;;30.90;79.70;;;;;;5052513;28;20381;-50
2021/06/21 12:12:54;;;;;;;5.70;3.40;;;31.00;77.40;;;;;;5051669;28;20393;-50
2021/06/21 12:15:35;;;;;;;7.07;3.27;;;30.60;78.30;;;;;;5053126;28;20881;-50
2021/06/21 12:18:00;;;;;;;7.38;3.75;;;30.30;78.30;;;;;;5051122;28;20390;-50
2021/06/21 12:20:27;;;;;;;7.68;3.55;;;30.20;79.00;;;;;;5053318;28;20519;-50
2021/06/21 12:22:59;;;;;;;8.20;3.35;;;30.40;79.70;;;;;;5052317;28;20477;-50
2021/06/21 12:25:35;;;;;;;6.95;3.30;;;30.40;78.80;;;;;;5052715;28;20385;-50
2021/06/21 12:28:11;;;;;;;9.15;3.47;;;30.50;79.50;;;;;;5052049;28;20721;-51
2021/06/21 12:30:42;;;;;;;9.15;2.80;;;30.70;80.20;;;;;;5051581;28;20416;-50
2021/06/21 12:33:37;;;;;;;8.13;2.80;;;31.10;78.80;;;;;;5052884;28;20370;-50
2021/06/21 12:36:11;;;;;;;6.28;2.80;;;31.20;77.90;;;;;;5052142;28;20409;-50
2021/06/21 12:38:41;;;;;;;8.38;3.15;;;31.00;78.10;;;;;;5051840;28;20398;-51
2021/06/21 12:41:36;;;;;;;7.38;3.58;;;30.80;77.10;;;;;;5051945;28;20378;-50
2021/06/21 12:44:08;;;;;;;6.60;3.17;;;30.90;77.40;;;;;;5051723;28;20477;-50
2021/06/21 12:46:36;;;;;;;8.90;3.00;;;30.70;76.90;;;;;;5051729;28;20851;-53
2021/06/21 12:49:08;;;;;;;6.72;3.08;;;30.90;78.60;;;;;;5052063;28;20423;-50
2021/06/21 12:51:34;;;;;;;8.70;3.60;;;30.90;75.80;;;;;;5052023;28;20448;-50
2021/06/21 12:54:00;;;;;;;6.55;3.20;;;30.50;81.10;;;;;;5051216;28;20386;-51
2021/06/21 12:56:34;;;;;;;6.47;3.10;;;30.30;78.70;;;;;;5052010;28;20412;-50
2021/06/21 12:59:00;;;;;;;7.78;2.78;;;30.10;81.10;;;;;;5052224;28;20389;-51
2021/06/21 13:01:33;;;;;;;7.22;3.15;;;30.30;81.10;;;;;;5051571;28;20460;-50